createdAt,value
2018-11-20T00:00:04.991Z,37.47
2018-11-20T00:02:53.762Z,32.50
2018-11-20T00:05:41.430Z,35.70
2018-11-20T00:08:30.506Z,33.37
2018-11-20T00:11:19.598Z,33.30
2018-11-20T00:14:23.570Z,36.60
2018-11-20T00:17:12.690Z,38.80
2018-11-20T00:20:07.700Z,35.73
2018-11-20T00:22:55.974Z,36.03
2018-11-20T00:25:37.165Z,33.00
2018-11-20T00:28:32.258Z,34.33
2018-11-20T00:31:36.374Z,34.33
2018-11-20T00:34:19.498Z,34.37
2018-11-20T00:37:11.325Z,34.57
2018-11-20T00:40:09.092Z,33.90
2018-11-20T00:43:04.709Z,34.73
2018-11-20T00:45:52.569Z,34.93
2018-11-20T00:48:53.696Z,31.47
2018-11-20T00:51:42.644Z,36.23
2018-11-20T00:54:40.624Z,35.80
2018-11-20T00:57:29.787Z,36.00
2018-11-20T01:00:30.121Z,34.47
2018-11-20T01:03:37.643Z,35.07
2018-11-20T01:06:38.854Z,33.23
2018-11-20T01:09:31.584Z,33.60
2018-11-20T01:12:23.388Z,31.90
2018-11-20T01:15:11.157Z,32.23
2018-11-20T01:17:54.145Z,31.63
2018-11-20T01:20:41.913Z,33.40
2018-11-20T01:23:29.645Z,32.90
2018-11-20T01:26:17.374Z,34.37
2018-11-20T01:29:06.536Z,29.40
2018-11-20T01:31:55.600Z,31.27
2018-11-20T01:34:44.686Z,31.53
2018-11-20T01:37:31.470Z,34.60
2018-11-20T01:40:07.382Z,30.83
2018-11-20T01:43:08.365Z,30.70
2018-11-20T01:46:03.252Z,34.30
2018-11-20T01:48:52.330Z,32.43
2018-11-20T01:51:39.855Z,29.50
2018-11-20T01:54:27.793Z,30.10
2018-11-20T01:57:15.726Z,29.43
2018-11-20T02:00:16.871Z,31.07
2018-11-20T02:02:56.792Z,31.60
2018-11-20T02:05:39.227Z,29.90
2018-11-20T02:08:28.328Z,31.37
2018-11-20T02:11:16.236Z,30.03
2018-11-20T02:14:22.689Z,25.77
2018-11-20T02:17:41.255Z,26.00
2018-11-20T02:20:24.081Z,30.43
2018-11-20T02:23:11.942Z,28.23
2018-11-20T02:26:09.911Z,29.63
2018-11-20T02:28:57.909Z,30.67
2018-11-20T02:32:05.096Z,31.03
2018-11-20T02:35:06.242Z,30.10
2018-11-20T02:38:13.609Z,30.60
2018-11-20T02:41:08.534Z,29.73
2018-11-20T02:43:53.587Z,28.33
2018-11-20T02:46:36.283Z,27.37
2018-11-20T02:49:28.144Z,29.37
2018-11-20T02:52:23.044Z,31.90
2018-11-20T02:55:21.033Z,31.43
2018-11-20T02:58:28.403Z,29.20
2018-11-20T03:01:16.563Z,30.77
2018-11-20T03:04:06.632Z,33.17
2018-11-20T03:06:57.902Z,31.67
2018-11-20T03:10:01.857Z,33.23
2018-11-20T03:12:56.961Z,30.50
2018-11-20T03:15:42.467Z,31.70
2018-11-20T03:18:26.673Z,32.27
2018-11-20T03:21:24.967Z,32.47
2018-11-20T03:24:16.897Z,29.97
2018-11-20T03:26:58.785Z,31.37
2018-11-20T03:30:43.767Z,32.37
2018-11-20T03:33:31.500Z,31.40
2018-11-20T03:36:19.416Z,33.37
2018-11-20T03:39:11.158Z,31.33
2018-11-20T03:42:00.367Z,34.00
2018-11-20T03:45:01.262Z,32.30
2018-11-20T03:47:53.110Z,34.83
2018-11-20T03:50:44.753Z,36.20
2018-11-20T03:53:32.342Z,33.20
2018-11-20T03:56:24.270Z,33.27
2018-11-20T03:59:16.096Z,31.10
2018-11-20T04:01:56.558Z,33.23
2018-11-20T04:04:45.598Z,35.37
2018-11-20T04:07:40.417Z,32.63
2018-11-20T04:10:27.437Z,34.87
2018-11-20T04:13:22.329Z,32.93
2018-11-20T04:16:17.332Z,35.47
2018-11-20T04:19:12.434Z,33.80
2018-11-20T04:22:00.370Z,33.07
2018-11-20T04:25:04.691Z,33.17
2018-11-20T04:27:46.380Z,36.70
2018-11-20T04:30:57.869Z,36.73
2018-11-20T04:34:12.851Z,37.87
2018-11-20T04:37:00.365Z,36.80
2018-11-20T04:40:02.657Z,34.30
2018-11-20T04:42:51.755Z,34.77
2018-11-20T04:45:59.089Z,35.23
2018-11-20T04:48:40.285Z,36.10
2018-11-20T04:51:28.104Z,37.60
2018-11-20T04:54:17.163Z,37.83
2018-11-20T04:57:15.317Z,36.20
2018-11-20T04:59:56.413Z,36.83
2018-11-20T05:02:43.960Z,36.67
2018-11-20T05:05:31.672Z,35.73
2018-11-20T05:08:10.066Z,35.87
2018-11-20T05:11:08.055Z,36.93
2018-11-20T05:13:53.288Z,36.87
2018-11-20T05:16:48.289Z,34.20
2018-11-20T05:19:35.962Z,33.33
2018-11-20T05:22:26.815Z,35.47
2018-11-20T05:25:31.287Z,37.17
2018-11-20T05:28:20.455Z,38.20
2018-11-20T05:31:27.766Z,34.07
2018-11-20T05:34:15.579Z,36.53
2018-11-20T05:37:03.516Z,36.30
2018-11-20T05:39:58.354Z,36.57
2018-11-20T05:42:47.474Z,37.50
2018-11-20T05:45:48.413Z,36.20
2018-11-20T05:48:36.002Z,37.37
2018-11-20T05:51:23.777Z,37.10
2018-11-20T05:54:15.805Z,34.97
2018-11-20T05:57:05.118Z,37.23
2018-11-20T06:00:06.449Z,36.73
2018-11-20T06:03:01.424Z,34.93
2018-11-20T06:05:50.478Z,35.70
2018-11-20T06:08:42.320Z,37.47
2018-11-20T06:11:30.048Z,34.03
2018-11-20T06:14:17.780Z,34.10
2018-11-20T06:17:05.614Z,36.43
2018-11-20T06:19:43.322Z,37.40
2018-11-20T06:22:31.138Z,33.37
2018-11-20T06:25:25.889Z,37.90
2018-11-20T06:28:06.959Z,34.47
2018-11-20T06:30:54.743Z,35.30
2018-11-20T06:33:42.780Z,36.27
2018-11-20T06:36:31.433Z,36.10
2018-11-20T06:39:19.171Z,37.37
2018-11-20T06:42:10.921Z,37.20
2018-11-20T06:45:05.899Z,37.17
2018-11-20T06:48:00.655Z,36.37
2018-11-20T06:51:04.908Z,35.63
2018-11-20T06:53:52.638Z,36.83
2018-11-20T06:56:38.728Z,35.27
2018-11-20T06:59:26.133Z,36.30
2018-11-20T07:02:18.084Z,36.67
2018-11-20T07:05:05.715Z,37.67
2018-11-20T07:07:53.251Z,36.03
2018-11-20T07:10:40.969Z,37.00
2018-11-20T07:13:54.277Z,37.07
2018-11-20T07:16:52.785Z,31.83
2018-11-20T07:19:59.207Z,34.80
2018-11-20T07:22:48.318Z,34.73
2018-11-20T07:25:40.202Z,33.97
2018-11-20T07:28:44.259Z,34.30
2018-11-20T07:31:33.474Z,36.33
2018-11-20T07:34:21.260Z,36.03
2018-11-20T07:37:09.093Z,36.13
2018-11-20T07:40:00.922Z,37.00
2018-11-20T07:42:48.659Z,32.43
2018-11-20T07:45:36.893Z,38.43
2018-11-20T07:48:25.033Z,36.63
2018-11-20T07:51:17.003Z,37.07
2018-11-20T07:54:04.692Z,36.03
2018-11-20T07:57:06.148Z,37.07
2018-11-20T08:00:07.494Z,36.17
2018-11-20T08:02:56.555Z,36.63
2018-11-20T08:05:52.467Z,36.97
2018-11-20T08:08:56.543Z,36.73
2018-11-20T08:11:57.745Z,38.47
2018-11-20T08:14:53.184Z,36.73
2018-11-20T08:17:57.167Z,38.27
2018-11-20T08:20:49.031Z,37.23
2018-11-20T08:23:50.150Z,40.70
2018-11-20T08:26:54.097Z,36.83
2018-11-20T08:30:01.022Z,38.80
2018-11-20T08:32:55.717Z,37.87
2018-11-20T08:35:43.242Z,34.07
2018-11-20T08:38:30.853Z,36.83
2018-11-20T08:41:18.819Z,38.07
2018-11-20T08:44:06.579Z,37.03
2018-11-20T08:46:54.178Z,39.40
2018-11-20T08:49:42.113Z,36.93
2018-11-20T08:52:31.589Z,39.87
2018-11-20T08:55:35.803Z,37.47
2018-11-20T08:58:20.260Z,39.37
2018-11-20T09:01:06.374Z,37.23
2018-11-20T09:04:13.640Z,42.00
2018-11-20T09:07:08.656Z,40.70
2018-11-20T09:10:04.102Z,38.97
2018-11-20T09:12:51.828Z,39.13
2018-11-20T09:15:39.322Z,42.10
2018-11-20T09:18:20.489Z,38.60
2018-11-20T09:21:12.358Z,41.07
2018-11-20T09:23:59.900Z,38.33
2018-11-20T09:27:00.936Z,41.07
2018-11-20T09:29:49.128Z,39.47
2018-11-20T09:32:29.197Z,41.43
2018-11-20T09:35:36.570Z,39.63
2018-11-20T09:38:24.199Z,38.50
2018-11-20T09:41:17.562Z,39.77
2018-11-20T09:44:21.490Z,40.33
2018-11-20T09:47:10.709Z,41.03
2018-11-20T09:49:58.374Z,40.93
2018-11-20T09:52:47.494Z,37.40
2018-11-20T09:55:48.887Z,40.40
2018-11-20T09:58:36.616Z,40.77
2018-11-20T10:01:28.959Z,41.33
2018-11-20T10:04:20.781Z,39.30
2018-11-20T10:07:08.563Z,41.47
2018-11-20T10:09:59.993Z,39.00
2018-11-20T10:12:47.763Z,38.00
2018-11-20T10:15:43.379Z,40.53
2018-11-20T10:18:32.483Z,38.30
2018-11-20T10:21:20.641Z,44.83
2018-11-20T10:24:12.306Z,43.63
2018-11-20T10:27:04.135Z,39.80
2018-11-20T10:30:05.085Z,42.83
2018-11-20T10:32:54.174Z,39.00
2018-11-20T10:35:43.304Z,37.47
2018-11-20T10:38:47.621Z,40.00
2018-11-20T10:41:39.861Z,38.23
2018-11-20T10:44:19.010Z,39.63
2018-11-20T10:47:26.597Z,39.90
2018-11-20T10:50:22.312Z,38.30
2018-11-20T10:53:21.510Z,39.80
2018-11-20T10:56:09.150Z,37.77
2018-11-20T10:58:58.408Z,36.23
2018-11-20T11:01:46.339Z,36.43
2018-11-20T11:04:33.658Z,36.83
2018-11-20T11:07:21.412Z,36.10
2018-11-20T11:09:56.276Z,38.67
2018-11-20T11:12:51.839Z,37.80
2018-11-20T11:15:57.542Z,37.30
2018-11-20T11:18:49.412Z,36.17
2018-11-20T11:24:30.714Z,36.60
2018-11-20T11:27:22.418Z,35.43
2018-11-20T11:30:26.660Z,35.67
2018-11-20T11:33:14.491Z,34.07
2018-11-20T11:36:02.222Z,31.97
2018-11-20T11:38:57.078Z,31.00
2018-11-20T11:41:44.755Z,31.07
2018-11-20T11:44:36.650Z,34.67
2018-11-20T11:47:25.843Z,37.00
2018-11-20T11:50:13.370Z,37.57
2018-11-20T11:53:02.434Z,37.53
2018-11-20T11:55:50.267Z,38.90
2018-11-20T11:58:45.002Z,38.03
2018-11-20T12:04:18.596Z,37.73
2018-11-20T12:07:10.506Z,39.87
2018-11-20T12:10:14.697Z,40.27
2018-11-20T12:13:06.860Z,41.80
2018-11-20T12:16:14.208Z,41.70
2018-11-20T12:19:12.658Z,42.13
2018-11-20T12:21:59.134Z,43.83
2018-11-20T12:24:50.791Z,40.67
2018-11-20T12:27:40.445Z,43.23
2018-11-20T12:30:32.680Z,39.37
2018-11-20T12:33:38.633Z,38.10
2018-11-20T12:36:26.361Z,41.63
2018-11-20T12:39:30.590Z,43.00
2018-11-20T12:42:29.037Z,39.87
2018-11-20T12:45:27.330Z,41.53
2018-11-20T12:48:12.413Z,37.70
2018-11-20T12:51:00.880Z,39.07
2018-11-20T12:53:48.469Z,38.53
2018-11-20T12:56:37.649Z,36.53
2018-11-20T12:59:29.784Z,33.47
2018-11-20T13:02:18.838Z,35.30
2018-11-20T13:05:16.909Z,33.73
2018-11-20T13:08:03.833Z,30.70
2018-11-20T13:10:55.353Z,32.20
2018-11-20T13:13:47.982Z,32.33
2018-11-20T13:16:33.538Z,29.83
2018-11-20T13:19:40.817Z,29.50
2018-11-20T13:22:27.491Z,30.60
2018-11-20T13:25:15.206Z,30.37
2018-11-20T13:28:19.423Z,29.00
2018-11-20T13:31:20.503Z,25.57
2018-11-20T13:34:25.100Z,27.50
2018-11-20T13:37:19.638Z,24.40
2018-11-20T13:40:17.641Z,24.53
2018-11-20T13:43:06.513Z,24.20
2018-11-20T13:45:55.678Z,23.30
2018-11-20T13:48:47.505Z,24.73
2018-11-20T13:51:54.899Z,25.23
2018-11-20T13:54:43.466Z,26.10
2018-11-20T13:57:47.674Z,27.33
2018-11-20T14:00:39.203Z,28.93
2018-11-20T14:03:21.266Z,30.90
2018-11-20T14:06:09.222Z,29.10
2018-11-20T14:09:12.254Z,32.80
2018-11-20T14:12:01.476Z,35.57
2018-11-20T14:14:38.891Z,33.70
2018-11-20T14:17:39.387Z,34.33
2018-11-20T14:20:46.568Z,36.83
2018-11-20T14:23:47.544Z,40.37
2018-11-20T14:26:39.965Z,36.83
2018-11-20T14:29:31.815Z,40.13
2018-11-20T14:32:19.226Z,37.30
2018-11-20T14:35:26.540Z,38.73
2018-11-20T14:38:11.740Z,39.70
2018-11-20T14:40:55.870Z,37.63
2018-11-20T14:43:47.768Z,37.23
2018-11-20T14:46:39.529Z,39.10
2018-11-20T14:49:31.418Z,35.37
2018-11-20T14:52:32.565Z,36.07
2018-11-20T14:55:20.184Z,36.73
2018-11-20T14:57:58.292Z,38.57
2018-11-20T15:00:56.340Z,39.70
2018-11-20T15:03:38.871Z,38.37
2018-11-20T15:06:33.976Z,38.73
2018-11-20T15:09:22.117Z,42.10
2018-11-20T15:12:29.201Z,39.40
2018-11-20T15:15:36.490Z,40.73
2018-11-20T15:18:24.223Z,41.17
2018-11-20T15:21:10.418Z,46.30
2018-11-20T15:23:47.396Z,43.37
2018-11-20T15:26:36.566Z,43.60
2018-11-20T15:29:24.806Z,40.77
2018-11-20T15:32:13.888Z,43.73
2018-11-20T15:35:05.288Z,41.03
2018-11-20T15:37:57.070Z,41.90
2018-11-20T15:40:46.181Z,42.33
2018-11-20T15:43:35.339Z,43.00
2018-11-20T15:46:36.716Z,39.20
2018-11-20T15:49:35.181Z,41.87
2018-11-20T15:52:13.155Z,40.00
2018-11-20T15:55:10.132Z,39.37
2018-11-20T15:58:11.162Z,41.03
2018-11-20T16:01:03.198Z,45.10
2018-11-20T16:03:51.032Z,41.77
2018-11-20T16:06:38.870Z,40.97
2018-11-20T16:09:27.935Z,43.77
2018-11-20T16:12:16.582Z,44.50
2018-11-20T16:15:14.447Z,41.57
2018-11-20T16:18:03.617Z,41.07
2018-11-20T16:21:10.996Z,41.13
2018-11-20T16:23:58.942Z,44.90
2018-11-20T16:26:46.673Z,42.90
2018-11-20T16:29:38.503Z,43.93
2018-11-20T16:32:26.288Z,42.97
2018-11-20T16:35:30.561Z,45.93
2018-11-20T16:38:22.371Z,43.57
2018-11-20T16:41:14.008Z,43.10
2018-11-20T16:43:55.793Z,42.47
2018-11-20T16:46:46.703Z,41.33
2018-11-20T16:49:35.875Z,42.03
2018-11-20T16:52:39.978Z,43.73
2018-11-20T16:55:27.824Z,41.47
2018-11-20T16:58:22.925Z,42.30
2018-11-20T17:01:27.535Z,46.23
2018-11-20T17:04:15.176Z,41.53
2018-11-20T17:07:04.334Z,44.37
2018-11-20T17:10:02.488Z,44.63
2018-11-20T17:12:54.236Z,48.10
2018-11-20T17:15:54.983Z,44.33
2018-11-20T17:18:42.604Z,42.53
2018-11-20T17:21:30.438Z,43.87
2018-11-20T17:24:16.964Z,43.93
2018-11-20T17:27:04.769Z,42.17
2018-11-20T17:29:47.999Z,42.53
2018-11-20T17:32:37.172Z,41.17
2018-11-20T17:35:32.537Z,43.67
2018-11-20T17:38:20.203Z,42.70
2018-11-20T17:41:08.036Z,42.87
2018-11-20T17:43:55.635Z,42.00
2018-11-20T17:46:47.489Z,43.37
2018-11-20T17:49:35.325Z,44.83
2018-11-20T17:52:33.193Z,43.77
2018-11-20T17:55:21.140Z,42.73
2018-11-20T17:58:10.299Z,41.63
2018-11-20T18:01:02.326Z,43.87
2018-11-20T18:03:57.429Z,42.97
2018-11-20T18:06:38.131Z,43.93
2018-11-20T18:09:27.637Z,43.80
2018-11-20T18:12:18.950Z,46.23
2018-11-20T18:15:08.265Z,47.77
2018-11-20T18:18:08.460Z,47.23
2018-11-20T18:21:01.859Z,43.53
2018-11-20T18:23:52.063Z,44.40
2018-11-20T18:26:41.622Z,45.63
2018-11-20T18:29:30.656Z,45.73
2018-11-20T18:32:23.117Z,43.77
2018-11-20T18:35:11.728Z,50.30
2018-11-20T18:38:12.786Z,44.43
2018-11-20T18:41:14.281Z,47.43
2018-11-20T18:44:02.087Z,43.47
2018-11-20T18:46:59.957Z,46.27
2018-11-20T18:49:47.790Z,46.17
2018-11-20T18:52:35.634Z,49.17
2018-11-20T18:55:25.406Z,43.93
2018-11-20T18:58:17.337Z,43.50
2018-11-20T19:01:12.306Z,46.63
2018-11-20T19:04:44.501Z,47.67
2018-11-20T19:07:35.804Z,46.17
2018-11-20T19:10:25.424Z,46.67
2018-11-20T19:13:19.512Z,42.43
2018-11-20T19:16:06.598Z,47.90
2018-11-20T19:19:10.201Z,48.17
2018-11-20T19:22:06.939Z,47.67
2018-11-20T19:24:54.261Z,44.87
2018-11-20T19:27:41.285Z,45.67
2018-11-20T19:30:32.695Z,46.03
2018-11-20T19:33:32.201Z,46.13
2018-11-20T19:36:19.323Z,44.03
2018-11-20T19:39:06.640Z,46.03
2018-11-20T19:41:53.763Z,42.03
2018-11-20T19:44:48.437Z,47.33
2018-11-20T19:47:39.688Z,45.73
2018-11-20T19:50:32.364Z,47.20
2018-11-20T19:53:27.112Z,47.33
2018-11-20T19:56:16.478Z,47.27
2018-11-20T19:59:10.946Z,44.10
2018-11-20T20:01:59.311Z,44.17
2018-11-20T20:04:46.430Z,47.73
2018-11-20T20:07:33.245Z,46.37
2018-11-20T20:10:21.640Z,45.03
2018-11-20T20:13:09.845Z,44.43
2018-11-20T20:16:02.871Z,45.07
2018-11-20T20:18:56.963Z,45.73
2018-11-20T20:22:00.528Z,44.67
2018-11-20T20:24:48.001Z,47.37
2018-11-20T20:27:51.696Z,48.53
2018-11-20T20:30:40.246Z,46.90
2018-11-20T20:33:40.914Z,48.40
2018-11-20T20:36:47.607Z,46.87
2018-11-20T20:39:34.816Z,46.50
2018-11-20T20:42:41.755Z,47.30
2018-11-20T20:45:39.317Z,53.37
2018-11-20T20:48:45.993Z,48.43
2018-11-20T20:51:46.362Z,49.10
2018-11-20T20:54:38.562Z,46.43
2018-11-20T20:57:30.855Z,47.70
2018-11-20T21:00:17.909Z,44.07
2018-11-20T21:03:15.722Z,48.87
2018-11-20T21:06:03.509Z,49.20
2018-11-20T21:08:50.727Z,47.07
2018-11-20T21:11:35.594Z,48.60
2018-11-20T21:14:33.303Z,50.97
2018-11-20T21:17:37.067Z,48.27
2018-11-20T21:20:37.807Z,48.13
2018-11-20T21:23:21.348Z,49.90
2018-11-20T21:26:24.934Z,46.83
2018-11-20T21:29:13.220Z,44.40
2018-11-20T21:32:04.321Z,43.77
2018-11-20T21:34:58.574Z,50.33
2018-11-20T21:37:53.062Z,46.83
2018-11-20T21:40:38.888Z,49.17
2018-11-20T21:43:36.410Z,43.63
2018-11-20T21:46:23.245Z,52.17
2018-11-20T21:49:09.954Z,48.80
2018-11-20T21:51:59.708Z,49.00
2018-11-20T21:54:37.096Z,48.43
2018-11-20T21:57:24.418Z,50.33
2018-11-20T22:00:22.797Z,48.57
2018-11-20T22:03:17.578Z,47.80
2018-11-20T22:06:04.374Z,49.87
2018-11-20T22:08:51.080Z,47.63
2018-11-20T22:11:51.641Z,49.73
2018-11-20T22:14:38.963Z,49.13
2018-11-20T22:17:27.254Z,49.87
2018-11-20T22:20:15.552Z,52.50
2018-11-20T22:23:02.357Z,53.33
2018-11-20T22:25:56.648Z,51.53
2018-11-20T22:28:59.852Z,48.37
2018-11-20T22:31:48.084Z,49.67
2018-11-20T22:34:35.408Z,43.97
2018-11-20T22:37:20.967Z,44.63
2018-11-20T22:40:08.001Z,48.60
2018-11-20T22:42:59.214Z,44.40
2018-11-20T22:45:53.806Z,48.93
2018-11-20T22:48:38.259Z,49.30
2018-11-20T22:51:25.376Z,46.73
2018-11-20T22:54:16.624Z,48.73
2018-11-20T22:57:20.295Z,48.50
2018-11-20T23:00:17.140Z,54.70
2018-11-20T23:03:17.573Z,55.17
2018-11-20T23:06:03.561Z,50.00
2018-11-20T23:08:32.855Z,53.73
2018-11-20T23:11:02.260Z,53.30
2018-11-20T23:13:31.807Z,56.23
2018-11-20T23:16:01.403Z,58.83
2018-11-20T23:18:30.672Z,55.67
2018-11-20T23:21:00.003Z,56.07
2018-11-20T23:23:29.269Z,56.67
2018-11-20T23:25:58.474Z,56.33
2018-11-20T23:28:27.670Z,55.57
2018-11-20T23:30:56.962Z,55.13
2018-11-20T23:33:26.676Z,52.97
2018-11-20T23:35:55.880Z,55.30
2018-11-20T23:38:25.050Z,55.53
2018-11-20T23:40:54.363Z,52.10
2018-11-20T23:43:23.672Z,52.40
2018-11-20T23:45:52.865Z,55.30
2018-11-20T23:48:22.417Z,55.77
2018-11-20T23:50:51.603Z,57.20
2018-11-20T23:53:20.809Z,52.57
2018-11-20T23:55:50.164Z,61.00
2018-11-20T23:58:19.352Z,54.90
